Time;durP1;ratioP1;P1;durP2;ratioP2;P2;SDS_P1;SDS_P2;PMS_P1;PMS_P2;Temp;Humidity;BMP_temperature;BMP_pressure;BME280_temperature;BME280_humidity;BME280_pressure;Samples;Min_cycle;Max_cycle;Signal;HPM_P1;HPM_P2
2021/01/14 00:02:49;;;;;;;11.47;8.90;;;;;;;;;;5050155;28;20539;-87
2021/01/14 00:05:53;;;;;;;11.80;9.57;;;;;;;;;;5056796;28;20539;-86
2021/01/14 00:08:57;;;;;;;11.13;8.70;;;;;;;;;;5034450;28;20539;-85
2021/01/14 00:12:02;;;;;;;13.63;9.93;;;;;;;;;;5060836;28;20650;-86
2021/01/14 00:15:07;;;;;;;13.67;10.20;;;;;;;;;;5035034;28;20602;-85
2021/01/14 00:18:12;;;;;;;12.07;9.43;;;;;;;;;;5036892;28;20543;-87
2021/01/14 00:21:16;;;;;;;12.37;9.23;;;;;;;;;;5051014;28;20634;-87
2021/01/14 00:24:20;;;;;;;14.13;9.40;;;;;;;;;;5059329;28;20606;-85
2021/01/14 00:27:25;;;;;;;11.53;9.27;;;;;;;;;;5059219;28;20539;-86
2021/01/14 00:30:30;;;;;;;12.20;9.03;;;;;;;;;;5046926;28;20547;-84
2021/01/14 00:33:37;;;;;;;12.27;8.80;;;;;;;;;;5048335;28;20531;-84
2021/01/14 00:40:04;;;;;;;13.17;9.70;;;;;;;;;;5057316;28;20539;-86
2021/01/14 00:43:08;;;;;;;12.43;8.93;;;;;;;;;;5045395;28;20539;-87
2021/01/14 00:46:20;;;;;;;13.20;9.20;;;;;;;;;;5036519;28;20551;-87
2021/01/14 00:49:25;;;;;;;13.30;9.30;;;;;;;;;;5053159;28;20954;-87
2021/01/14 00:52:29;;;;;;;11.37;8.40;;;;;;;;;;5042013;28;20643;-87
2021/01/14 00:55:34;;;;;;;10.03;7.57;;;;;;;;;;5041866;28;20585;-87
2021/01/14 00:58:38;;;;;;;10.53;8.27;;;;;;;;;;5055464;28;20542;-87
2021/01/14 01:01:42;;;;;;;9.63;7.83;;;;;;;;;;5066111;28;21200;-87
2021/01/14 01:04:47;;;;;;;12.03;8.37;;;;;;;;;;5055489;28;20535;-87
2021/01/14 01:07:59;;;;;;;9.90;8.03;;;;;;;;;;5044901;28;20606;-87
2021/01/14 01:11:03;;;;;;;9.33;7.67;;;;;;;;;;5055922;28;20630;-87
2021/01/14 01:14:08;;;;;;;8.97;6.83;;;;;;;;;;5055187;28;20543;-88
2021/01/14 01:17:12;;;;;;;8.80;6.90;;;;;;;;;;5043498;28;20535;-87
2021/01/14 01:20:16;;;;;;;8.43;7.20;;;;;;;;;;5065141;28;20538;-85
2021/01/14 01:23:21;;;;;;;8.43;7.03;;;;;;;;;;5064271;28;20603;-87
2021/01/14 01:26:25;;;;;;;8.93;7.07;;;;;;;;;;5038725;28;20598;-87
2021/01/14 01:29:29;;;;;;;9.37;6.77;;;;;;;;;;5037329;28;20614;-87
2021/01/14 01:32:33;;;;;;;8.80;6.93;;;;;;;;;;5046947;28;20654;-86
2021/01/14 01:35:38;;;;;;;7.83;6.50;;;;;;;;;;5046284;28;20551;-87
2021/01/14 01:38:42;;;;;;;8.03;6.50;;;;;;;;;;5045351;28;21089;-87
2021/01/14 01:41:46;;;;;;;7.73;6.17;;;;;;;;;;5045143;28;20618;-86
2021/01/14 01:44:50;;;;;;;8.30;6.53;;;;;;;;;;5045114;28;20539;-87
2021/01/14 01:47:55;;;;;;;8.90;5.93;;;;;;;;;;5043988;28;20902;-86
2021/01/14 01:51:01;;;;;;;7.70;5.97;;;;;;;;;;5033984;28;20622;-86
2021/01/14 01:54:06;;;;;;;7.67;5.80;;;;;;;;;;5033185;28;20547;-87
2021/01/14 01:57:11;;;;;;;8.30;6.70;;;;;;;;;;5043381;28;20607;-87
2021/01/14 02:00:15;;;;;;;7.27;5.70;;;;;;;;;;5031714;28;20535;-86
2021/01/14 02:03:19;;;;;;;6.50;5.43;;;;;;;;;;5032415;28;20595;-86
2021/01/14 02:06:23;;;;;;;7.70;6.00;;;;;;;;;;5044451;28;20539;-86
2021/01/14 02:09:28;;;;;;;6.23;5.47;;;;;;;;;;5033136;28;20582;-86
2021/01/14 02:12:38;;;;;;;7.60;5.67;;;;;;;;;;5033615;28;20649;-86
2021/01/14 02:15:44;;;;;;;7.10;5.97;;;;;;;;;;5034565;28;20539;-86
2021/01/14 02:18:55;;;;;;;6.90;5.73;;;;;;;;;;5044170;28;20906;-86
2021/01/14 02:22:03;;;;;;;7.27;5.50;;;;;;;;;;5056030;28;20629;-86
2021/01/14 02:25:22;;;;;;;6.80;5.70;;;;;;;;;;5044148;28;20547;-86
2021/01/14 02:28:26;;;;;;;8.57;5.67;;;;;;;;;;5045520;28;20890;-86
2021/01/14 02:31:31;;;;;;;8.37;5.70;;;;;;;;;;5045645;28;20626;-86
2021/01/14 02:34:35;;;;;;;7.50;5.30;;;;;;;;;;5033395;28;20543;-86
2021/01/14 02:37:39;;;;;;;6.97;5.57;;;;;;;;;;5055885;28;20606;-86
2021/01/14 02:40:44;;;;;;;6.37;5.67;;;;;;;;;;5042995;28;20634;-86
2021/01/14 02:43:48;;;;;;;6.63;5.40;;;;;;;;;;5043458;28;20543;-86
2021/01/14 02:46:52;;;;;;;7.00;5.33;;;;;;;;;;5032339;28;20539;-86
2021/01/14 02:50:04;;;;;;;6.13;5.07;;;;;;;;;;5043846;28;20543;-86
2021/01/14 02:53:12;;;;;;;7.40;5.67;;;;;;;;;;5043856;28;21128;-87
2021/01/14 02:56:18;;;;;;;8.40;6.07;;;;;;;;;;5032289;28;20543;-86
2021/01/14 02:59:22;;;;;;;6.67;5.37;;;;;;;;;;5032946;28;20598;-86
2021/01/14 03:02:28;;;;;;;7.97;5.80;;;;;;;;;;5055637;28;21179;-86
2021/01/14 03:05:32;;;;;;;7.03;5.43;;;;;;;;;;5055578;28;20547;-86
2021/01/14 03:08:37;;;;;;;7.80;5.80;;;;;;;;;;5032002;28;20602;-86
2021/01/14 03:11:41;;;;;;;6.93;5.40;;;;;;;;;;5043151;28;20618;-87
2021/01/14 03:14:45;;;;;;;7.60;5.93;;;;;;;;;;5031765;28;20539;-87
2021/01/14 03:17:50;;;;;;;7.57;5.57;;;;;;;;;;5035276;28;21085;-87
2021/01/14 03:20:54;;;;;;;7.23;5.43;;;;;;;;;;5046793;28;20626;-87
2021/01/14 03:23:58;;;;;;;7.83;5.93;;;;;;;;;;5036235;28;20543;-87
2021/01/14 03:27:02;;;;;;;9.07;5.60;;;;;;;;;;5046047;28;20606;-86
2021/01/14 03:30:09;;;;;;;7.00;5.67;;;;;;;;;;5033690;28;21156;-87
2021/01/14 03:33:13;;;;;;;7.87;5.70;;;;;;;;;;5044368;28;20591;-86
2021/01/14 03:36:18;;;;;;;7.87;5.63;;;;;;;;;;5032884;28;21077;-86
2021/01/14 03:39:29;;;;;;;10.23;6.53;;;;;;;;;;5044347;28;20914;-86
2021/01/14 03:42:33;;;;;;;10.37;6.00;;;;;;;;;;5032377;28;20618;-86
2021/01/14 03:45:37;;;;;;;7.50;6.00;;;;;;;;;;5044238;28;20543;-86
2021/01/14 03:48:44;;;;;;;7.60;5.00;;;;;;;;;;5044065;28;21089;-87
2021/01/14 03:51:49;;;;;;;7.53;5.43;;;;;;;;;;5055309;28;20622;-87
2021/01/14 03:54:53;;;;;;;8.40;5.93;;;;;;;;;;5032347;28;20532;-87
2021/01/14 03:57:57;;;;;;;10.67;6.00;;;;;;;;;;5032695;28;20905;-87
2021/01/14 04:01:02;;;;;;;7.77;5.60;;;;;;;;;;5043619;28;20626;-86
2021/01/14 04:04:06;;;;;;;8.60;5.83;;;;;;;;;;5055091;28;20595;-86
2021/01/14 04:07:13;;;;;;;9.90;5.77;;;;;;;;;;5043905;28;21065;-87
2021/01/14 04:10:17;;;;;;;8.07;5.97;;;;;;;;;;5032586;28;20543;-87
2021/01/14 04:13:21;;;;;;;9.47;5.90;;;;;;;;;;5043658;28;21008;-87
2021/01/14 04:16:25;;;;;;;9.03;5.83;;;;;;;;;;5055979;28;20961;-87
2021/01/14 04:19:30;;;;;;;11.43;6.60;;;;;;;;;;5032161;28;20598;-87
2021/01/14 04:22:34;;;;;;;8.53;5.03;;;;;;;;;;5040401;23;20690;-87
2021/01/14 04:25:38;;;;;;;13.87;7.13;;;;;;;;;;5011905;28;20579;-87
2021/01/14 04:28:42;;;;;;;7.33;5.53;;;;;;;;;;5012012;28;21141;-88
2021/01/14 04:31:48;;;;;;;8.60;6.03;;;;;;;;;;5004219;28;20987;-88
2021/01/14 04:34:52;;;;;;;11.43;5.50;;;;;;;;;;5004152;28;20572;-87
2021/01/14 04:37:57;;;;;;;9.87;5.20;;;;;;;;;;5004172;28;21079;-87
2021/01/14 04:41:04;;;;;;;7.70;5.63;;;;;;;;;;5003328;28;20540;-87
2021/01/14 04:44:08;;;;;;;10.00;5.67;;;;;;;;;;5014700;28;20537;-87
2021/01/14 04:47:15;;;;;;;9.83;5.60;;;;;;;;;;5014793;28;20541;-87
2021/01/14 04:50:19;;;;;;;6.87;4.80;;;;;;;;;;5015080;28;20553;-86
2021/01/14 04:53:28;;;;;;;7.90;5.27;;;;;;;;;;5015674;28;21126;-86
2021/01/14 04:56:35;;;;;;;7.50;5.03;;;;;;;;;;5003511;28;20545;-86
2021/01/14 04:59:41;;;;;;;10.03;5.53;;;;;;;;;;5003280;28;21138;-87
2021/01/14 05:03:02;;;;;;;8.00;5.20;;;;;;;;;;5002865;28;20620;-86
2021/01/14 05:06:06;;;;;;;11.00;5.90;;;;;;;;;;5014216;28;20545;-87
2021/01/14 05:09:17;;;;;;;10.20;6.03;;;;;;;;;;4991707;28;20537;-87
2021/01/14 05:12:21;;;;;;;9.60;6.03;;;;;;;;;;5002642;28;20624;-86
2021/01/14 05:15:27;;;;;;;7.60;5.87;;;;;;;;;;4995209;28;20597;-86
2021/01/14 05:18:31;;;;;;;8.00;5.47;;;;;;;;;;5002604;28;20552;-85
2021/01/14 05:21:38;;;;;;;10.90;7.10;;;;;;;;;;5002248;28;20644;-85
2021/01/14 05:25:07;;;;;;;7.60;6.27;;;;;;;;;;5002237;28;20646;-85
2021/01/14 05:28:13;;;;;;;11.70;5.70;;;;;;;;;;5014025;28;20895;-85
2021/01/14 05:31:18;;;;;;;9.37;6.50;;;;;;;;;;4991441;28;20620;-85
2021/01/14 05:34:23;;;;;;;11.20;6.60;;;;;;;;;;5002537;28;20639;-85
2021/01/14 05:37:28;;;;;;;8.63;5.63;;;;;;;;;;5002516;28;20545;-85
2021/01/14 05:40:32;;;;;;;7.67;5.47;;;;;;;;;;5013837;28;20545;-84
2021/01/14 05:43:48;;;;;;;9.00;5.07;;;;;;;;;;5002940;28;20540;-84
2021/01/14 05:46:53;;;;;;;7.97;5.40;;;;;;;;;;5002645;28;21103;-84
2021/01/14 05:50:00;;;;;;;7.93;4.50;;;;;;;;;;5002268;28;20895;-84
2021/01/14 05:53:13;;;;;;;6.47;4.13;;;;;;;;;;5002537;28;20644;-84
2021/01/14 05:56:24;;;;;;;7.77;3.83;;;;;;;;;;5013690;28;20549;-84
2021/01/14 05:59:40;;;;;;;5.73;3.53;;;;;;;;;;5002331;28;20545;-84
2021/01/14 06:02:44;;;;;;;6.57;3.50;;;;;;;;;;5002015;28;20628;-84
2021/01/14 06:05:48;;;;;;;8.50;3.70;;;;;;;;;;5002288;28;20540;-86
2021/01/14 06:09:06;;;;;;;5.03;3.23;;;;;;;;;;5002136;28;20900;-85
2021/01/14 06:12:12;;;;;;;6.17;3.17;;;;;;;;;;5001698;28;20986;-85
2021/01/14 06:15:16;;;;;;;4.77;3.27;;;;;;;;;;5001936;28;20538;-85
2021/01/14 06:18:20;;;;;;;6.00;3.47;;;;;;;;;;4990469;28;20565;-86
2021/01/14 06:21:42;;;;;;;6.20;3.40;;;;;;;;;;5001824;28;20639;-86
2021/01/14 06:24:53;;;;;;;5.53;3.60;;;;;;;;;;5000246;28;20549;-85
2021/01/14 06:27:59;;;;;;;5.43;3.90;;;;;;;;;;5001831;28;20545;-86
2021/01/14 06:31:10;;;;;;;7.00;3.70;;;;;;;;;;5001604;28;20549;-86
2021/01/14 06:34:18;;;;;;;5.43;3.27;;;;;;;;;;5012921;28;20947;-86
2021/01/14 06:37:24;;;;;;;8.83;4.00;;;;;;;;;;4990755;28;20549;-86
2021/01/14 06:40:29;;;;;;;7.00;3.50;;;;;;;;;;5001347;28;20549;-85
2021/01/14 06:43:36;;;;;;;7.73;3.63;;;;;;;;;;5001685;28;20537;-85
2021/01/14 06:46:41;;;;;;;5.93;4.00;;;;;;;;;;4990357;28;20553;-85
2021/01/14 06:50:00;;;;;;;6.23;3.90;;;;;;;;;;4990805;28;20552;-86
2021/01/14 06:53:12;;;;;;;8.00;3.70;;;;;;;;;;5005220;28;20624;-86
2021/01/14 06:56:20;;;;;;;6.23;4.00;;;;;;;;;;5005330;28;20545;-85
2021/01/14 06:59:25;;;;;;;6.13;4.23;;;;;;;;;;4994193;28;21062;-85
2021/01/14 07:02:55;;;;;;;5.13;3.83;;;;;;;;;;4993871;28;21193;-86
2021/01/14 07:06:19;;;;;;;14.13;8.57;;;;;;;;;;4994117;28;20537;-86
2021/01/14 07:09:31;;;;;;;10.67;6.47;;;;;;;;;;5005461;28;20544;-86
2021/01/14 07:12:43;;;;;;;7.13;5.07;;;;;;;;;;5005054;28;20616;-86
2021/01/14 07:15:49;;;;;;;9.90;4.37;;;;;;;;;;5004904;28;20526;-86
2021/01/14 07:18:53;;;;;;;6.03;3.80;;;;;;;;;;5004935;28;20544;-85
2021/01/14 07:21:57;;;;;;;7.77;4.10;;;;;;;;;;5004548;28;20647;-85
2021/01/14 07:25:02;;;;;;;6.63;4.07;;;;;;;;;;4993519;28;20549;-86
2021/01/14 07:28:09;;;;;;;8.00;5.20;;;;;;;;;;5004905;28;20540;-86
2021/01/14 07:31:26;;;;;;;5.90;4.13;;;;;;;;;;4993375;28;20620;-86
2021/01/14 07:34:41;;;;;;;7.67;4.23;;;;;;;;;;5004806;28;20593;-86
2021/01/14 07:37:53;;;;;;;5.57;3.97;;;;;;;;;;4993688;28;20924;-85
2021/01/14 07:40:57;;;;;;;7.23;4.10;;;;;;;;;;5004415;28;21103;-86
2021/01/14 07:44:02;;;;;;;10.20;4.97;;;;;;;;;;4993678;28;20541;-86
2021/01/14 07:47:07;;;;;;;6.83;4.50;;;;;;;;;;5016508;28;20553;-86
2021/01/14 07:50:22;;;;;;;5.67;3.43;;;;;;;;;;5004503;28;20604;-86
2021/01/14 07:53:26;;;;;;;7.33;4.80;;;;;;;;;;5004509;28;20549;-86
2021/01/14 07:56:31;;;;;;;10.77;5.20;;;;;;;;;;5015343;28;21107;-86
2021/01/14 07:59:37;;;;;;;7.23;4.67;;;;;;;;;;4993214;28;20877;-86
2021/01/14 08:03:13;;;;;;;9.60;8.13;;;;;;;;;;5003727;28;20987;-86
2021/01/14 08:06:26;;;;;;;5.73;3.80;;;;;;;;;;5004299;28;20537;-86
2021/01/14 08:09:41;;;;;;;6.17;3.40;;;;;;;;;;5003971;28;20927;-85
2021/01/14 08:12:45;;;;;;;28.50;15.93;;;;;;;;;;5003687;28;20620;-85
2021/01/14 08:15:50;;;;;;;10.10;5.50;;;;;;;;;;4992736;28;20541;-86
2021/01/14 08:19:29;;;;;;;5.63;3.30;;;;;;;;;;5004031;28;20545;-86
2021/01/14 08:22:44;;;;;;;5.53;3.50;;;;;;;;;;5003439;28;20635;-85
2021/01/14 08:25:48;;;;;;;9.30;3.90;;;;;;;;;;5003782;28;20604;-86
2021/01/14 08:29:02;;;;;;;7.10;4.30;;;;;;;;;;4992598;28;20544;-85
2021/01/14 08:32:25;;;;;;;5.20;3.60;;;;;;;;;;5003314;28;20983;-85
2021/01/14 08:35:34;;;;;;;7.30;3.70;;;;;;;;;;5003593;28;20971;-85
2021/01/14 08:38:38;;;;;;;5.47;3.67;;;;;;;;;;5003539;28;20903;-86
2021/01/14 08:41:44;;;;;;;8.90;3.60;;;;;;;;;;5003351;28;20628;-86
2021/01/14 08:44:50;;;;;;;7.03;3.63;;;;;;;;;;5003690;28;20601;-86
2021/01/14 08:47:56;;;;;;;15.53;4.70;;;;;;;;;;5003196;28;20541;-86
2021/01/14 08:51:02;;;;;;;5.70;3.33;;;;;;;;;;4992121;28;20544;-86
2021/01/14 08:54:07;;;;;;;5.50;3.60;;;;;;;;;;5003133;28;20604;-86
2021/01/14 08:57:11;;;;;;;5.67;3.23;;;;;;;;;;5003003;28;20553;-85
2021/01/14 09:00:15;;;;;;;6.53;4.00;;;;;;;;;;4991918;28;20545;-85
2021/01/14 09:03:21;;;;;;;11.67;5.23;;;;;;;;;;4991857;28;20552;-85
2021/01/14 09:06:29;;;;;;;13.37;5.20;;;;;;;;;;5002949;28;20541;-86
2021/01/14 09:09:33;;;;;;;10.40;4.20;;;;;;;;;;5014203;28;20557;-86
2021/01/14 09:12:38;;;;;;;5.33;3.57;;;;;;;;;;4991661;28;21187;-86
2021/01/14 09:15:42;;;;;;;7.23;3.67;;;;;;;;;;5002849;28;20609;-86
2021/01/14 09:18:47;;;;;;;4.90;1.90;;;;;;;;;;5002405;28;21151;-85
2021/01/14 09:21:52;;;;;;;3.33;2.20;;;;;;;;;;5002529;28;20639;-86
2021/01/14 09:24:56;;;;;;;4.37;2.07;;;;;;;;;;4991361;28;20968;-86
2021/01/14 09:28:07;;;;;;;5.43;2.83;;;;;;;;;;4991443;28;20545;-85
2021/01/14 09:31:11;;;;;;;5.57;3.60;;;;;;;;;;5002469;28;20631;-86
2021/01/14 09:34:15;;;;;;;15.77;6.47;;;;;;;;;;4991365;28;20588;-86
2021/01/14 09:37:20;;;;;;;13.73;6.90;;;;;;;;;;5002614;28;20607;-86
2021/01/14 09:40:24;;;;;;;4.27;2.83;;;;;;;;;;5002133;28;20592;-86
2021/01/14 09:43:30;;;;;;;2.90;2.60;;;;;;;;;;5002359;28;20541;-86
2021/01/14 09:46:40;;;;;;;3.23;2.17;;;;;;;;;;4991120;28;20545;-86
2021/01/14 09:49:44;;;;;;;4.63;2.87;;;;;;;;;;4991658;28;20545;-86
2021/01/14 09:52:48;;;;;;;4.07;2.10;;;;;;;;;;5002081;28;20616;-86
2021/01/14 09:55:55;;;;;;;3.50;2.00;;;;;;;;;;4991154;28;20596;-86
2021/01/14 09:59:08;;;;;;;5.10;1.90;;;;;;;;;;4990736;28;20608;-86
2021/01/14 10:02:29;;;;;;;4.47;1.50;;;;;;;;;;5013339;28;20636;-86
2021/01/14 10:05:36;;;;;;;4.40;2.10;;;;;;;;;;5001828;28;20541;-86
2021/01/14 10:08:46;;;;;;;5.37;3.33;;;;;;;;;;5001873;28;21162;-86
2021/01/14 10:11:50;;;;;;;4.53;2.90;;;;;;;;;;5013383;28;20624;-86
2021/01/14 10:15:12;;;;;;;5.20;2.73;;;;;;;;;;5002023;28;21035;-86
2021/01/14 10:18:26;;;;;;;8.43;2.07;;;;;;;;;;5002079;28;21076;-86
2021/01/14 10:21:31;;;;;;;7.43;3.93;;;;;;;;;;5014635;22;22058;-87
2021/01/14 10:24:35;;;;;;;2.63;1.50;;;;;;;;;;4991347;28;20537;-86
2021/01/14 10:27:39;;;;;;;4.40;2.70;;;;;;;;;;4994991;28;20548;-88
2021/01/14 10:30:43;;;;;;;6.57;3.27;;;;;;;;;;5005946;28;20915;-87
2021/01/14 10:33:55;;;;;;;6.47;1.70;;;;;;;;;;4997600;28;21063;-87
2021/01/14 10:36:59;;;;;;;6.27;2.50;;;;;;;;;;4986307;28;20526;-87
2021/01/14 10:40:17;;;;;;;4.40;2.90;;;;;;;;;;4986012;28;20562;-87
2021/01/14 10:43:29;;;;;;;3.70;2.03;;;;;;;;;;4986098;28;20983;-87
2021/01/14 10:46:34;;;;;;;5.27;2.43;;;;;;;;;;4985832;28;20550;-87
2021/01/14 10:49:38;;;;;;;2.80;1.50;;;;;;;;;;4986139;28;21079;-88
2021/01/14 10:53:00;;;;;;;1.53;1.10;;;;;;;;;;4985870;28;20616;-87
2021/01/14 10:56:07;;;;;;;2.03;1.30;;;;;;;;;;4985546;28;20609;-87
2021/01/14 10:59:12;;;;;;;3.83;1.10;;;;;;;;;;4985702;28;20541;-87
2021/01/14 11:02:22;;;;;;;3.80;1.50;;;;;;;;;;4985355;28;20613;-87
2021/01/14 11:05:40;;;;;;;3.13;1.50;;;;;;;;;;4985621;28;20545;-87
2021/01/14 11:08:44;;;;;;;7.30;1.97;;;;;;;;;;4996782;28;20549;-87
2021/01/14 11:11:50;;;;;;;3.63;2.00;;;;;;;;;;4996430;28;20628;-87
2021/01/14 11:14:54;;;;;;;5.77;3.30;;;;;;;;;;4974659;28;20593;-87
2021/01/14 11:18:00;;;;;;;2.77;1.47;;;;;;;;;;4985447;28;20545;-86
2021/01/14 11:21:04;;;;;;;2.40;1.87;;;;;;;;;;4985416;28;20546;-87
2021/01/14 11:24:08;;;;;;;3.43;1.70;;;;;;;;;;4985351;28;20542;-86
2021/01/14 11:27:12;;;;;;;5.03;1.60;;;;;;;;;;4985260;28;20541;-87
2021/01/14 11:30:17;;;;;;;8.07;3.10;;;;;;;;;;4985108;28;20541;-86
2021/01/14 11:33:21;;;;;;;3.70;2.00;;;;;;;;;;4984848;28;20617;-87
2021/01/14 11:36:25;;;;;;;4.63;1.80;;;;;;;;;;4973184;28;20592;-87
2021/01/14 11:39:29;;;;;;;4.97;2.70;;;;;;;;;;4996019;28;20608;-87
2021/01/14 11:42:33;;;;;;;5.20;2.23;;;;;;;;;;4984732;28;20629;-87
2021/01/14 11:45:39;;;;;;;4.33;2.10;;;;;;;;;;4996203;28;21095;-87
2021/01/14 11:48:44;;;;;;;6.80;2.47;;;;;;;;;;4974254;28;20909;-87
2021/01/14 11:51:49;;;;;;;6.97;3.00;;;;;;;;;;4984726;28;20625;-87
2021/01/14 11:54:53;;;;;;;3.77;2.03;;;;;;;;;;4973418;28;20601;-87
2021/01/14 11:57:57;;;;;;;3.37;1.80;;;;;;;;;;4984755;28;20550;-87
2021/01/14 12:01:03;;;;;;;4.17;2.63;;;;;;;;;;4995761;28;20562;-87
2021/01/14 12:04:07;;;;;;;2.80;2.03;;;;;;;;;;4984559;28;20542;-87
2021/01/14 12:07:11;;;;;;;4.43;2.40;;;;;;;;;;4984333;28;20542;-86
2021/01/14 12:10:16;;;;;;;2.60;1.77;;;;;;;;;;4984391;28;20546;-88
2021/01/14 12:13:19;;;;;;;2.40;1.70;;;;;;;;;;4984374;28;20617;-87
2021/01/14 12:16:24;;;;;;;4.93;2.10;;;;;;;;;;4984207;28;20609;-87
2021/01/14 12:19:28;;;;;;;4.30;2.03;;;;;;;;;;4984331;28;20549;-87
2021/01/14 12:22:34;;;;;;;2.90;1.53;;;;;;;;;;4984054;28;20637;-88
2021/01/14 12:25:38;;;;;;;1.83;1.50;;;;;;;;;;4984014;28;20593;-87
2021/01/14 12:28:42;;;;;;;4.03;1.80;;;;;;;;;;4994999;28;20541;-87
2021/01/14 12:31:46;;;;;;;4.40;2.27;;;;;;;;;;4972691;28;20620;-86
2021/01/14 12:34:51;;;;;;;3.50;1.57;;;;;;;;;;4983964;28;20542;-86
2021/01/14 12:37:55;;;;;;;3.30;1.40;;;;;;;;;;4994867;28;20550;-86
2021/01/14 12:40:59;;;;;;;2.20;1.50;;;;;;;;;;4984084;28;20538;-86
2021/01/14 12:44:03;;;;;;;3.00;1.30;;;;;;;;;;4983892;28;20542;-86
2021/01/14 12:47:09;;;;;;;4.07;2.07;;;;;;;;;;4994750;28;20913;-87
2021/01/14 12:50:15;;;;;;;3.93;2.10;;;;;;;;;;4983162;28;20596;-87
2021/01/14 12:53:19;;;;;;;3.73;1.60;;;;;;;;;;4983335;28;20641;-86
2021/01/14 12:56:24;;;;;;;3.80;1.63;;;;;;;;;;4994367;28;20649;-87
2021/01/14 12:59:28;;;;;;;9.67;4.57;;;;;;;;;;4972381;28;20561;-87
2021/01/14 13:02:32;;;;;;;5.97;3.13;;;;;;;;;;4983424;28;20625;-87
2021/01/14 13:05:36;;;;;;;4.40;2.37;;;;;;;;;;4994565;28;20538;-87
2021/01/14 13:08:41;;;;;;;5.40;2.03;;;;;;;;;;4983463;28;20593;-87
2021/01/14 13:11:45;;;;;;;2.67;1.77;;;;;;;;;;4982981;28;20620;-87
2021/01/14 13:14:49;;;;;;;23.00;9.00;;;;;;;;;;4983563;28;20538;-87
2021/01/14 13:17:53;;;;;;;31.50;9.80;;;;;;;;;;4983397;28;20526;-87
2021/01/14 13:20:58;;;;;;;18.63;8.00;;;;;;;;;;4994003;28;21163;-87
2021/01/14 13:24:04;;;;;;;12.43;6.10;;;;;;;;;;4983077;28;21112;-87
2021/01/14 13:27:08;;;;;;;13.77;6.50;;;;;;;;;;4972063;28;21064;-87
2021/01/14 13:30:12;;;;;;;7.83;4.07;;;;;;;;;;4982905;28;20537;-87
2021/01/14 13:33:17;;;;;;;9.27;4.70;;;;;;;;;;4983811;28;20621;-87
2021/01/14 13:36:21;;;;;;;12.10;7.43;;;;;;;;;;4982446;28;20609;-87
2021/01/14 13:39:25;;;;;;;8.37;4.43;;;;;;;;;;4993982;28;20589;-84
2021/01/14 13:42:29;;;;;;;9.53;4.13;;;;;;;;;;4982513;28;20629;-85
2021/01/14 13:45:34;;;;;;;6.70;4.87;;;;;;;;;;4983319;28;20593;-87
2021/01/14 13:48:38;;;;;;;5.40;3.40;;;;;;;;;;4995817;28;20558;-87
2021/01/14 13:51:43;;;;;;;7.87;5.90;;;;;;;;;;4982192;28;20617;-86
2021/01/14 13:54:47;;;;;;;6.53;3.03;;;;;;;;;;4982575;28;20542;-87
2021/01/14 13:57:51;;;;;;;7.23;3.70;;;;;;;;;;4993711;28;21065;-87
2021/01/14 14:00:55;;;;;;;10.60;2.83;;;;;;;;;;4982032;28;20589;-87
2021/01/14 14:04:01;;;;;;;5.87;2.50;;;;;;;;;;4993450;28;20596;-87
2021/01/14 14:07:05;;;;;;;2.93;2.00;;;;;;;;;;4993653;28;20597;-88
2021/01/14 14:10:09;;;;;;;3.47;1.97;;;;;;;;;;4977412;28;20573;-87
2021/01/14 14:13:14;;;;;;;3.27;1.80;;;;;;;;;;4982531;28;20676;-87
2021/01/14 14:16:18;;;;;;;12.33;7.13;;;;;;;;;;4993735;28;20593;-87
2021/01/14 14:19:23;;;;;;;4.90;2.93;;;;;;;;;;4994310;28;20557;-87
2021/01/14 14:23:34;;;;;;;4.47;2.07;;;;;;;;;;4983647;28;20652;-87
2021/01/14 14:27:11;;;;;;;6.13;2.53;;;;;;;;;;4995137;28;20581;-88
2021/01/14 14:30:16;;;;;;;3.53;2.33;;;;;;;;;;4994479;28;21151;-88
2021/01/14 14:33:20;;;;;;;3.57;1.80;;;;;;;;;;4994508;28;20621;-88
2021/01/14 14:36:26;;;;;;;10.80;2.27;;;;;;;;;;4994335;28;21012;-88
2021/01/14 14:39:30;;;;;;;5.70;3.40;;;;;;;;;;4994358;28;20882;-87
2021/01/14 14:42:34;;;;;;;11.93;4.83;;;;;;;;;;4971512;28;21178;-88
2021/01/14 14:45:38;;;;;;;5.60;3.03;;;;;;;;;;5006218;28;20553;-88
2021/01/14 14:48:44;;;;;;;5.40;1.67;;;;;;;;;;4972664;28;20546;-87
2021/01/14 14:51:48;;;;;;;15.17;6.10;;;;;;;;;;5002340;28;20645;-88
2021/01/14 14:54:52;;;;;;;6.00;3.20;;;;;;;;;;4991529;28;20541;-88
2021/01/14 14:57:56;;;;;;;6.37;3.20;;;;;;;;;;5009532;28;20542;-87
2021/01/14 15:01:01;;;;;;;9.17;3.50;;;;;;;;;;4985757;28;20569;-88
2021/01/14 15:04:06;;;;;;;6.67;3.90;;;;;;;;;;4994593;28;20901;-88
2021/01/14 15:07:11;;;;;;;8.07;4.13;;;;;;;;;;4982915;28;21080;-88
2021/01/14 15:10:15;;;;;;;6.80;4.00;;;;;;;;;;4993909;28;20549;-88
2021/01/14 15:13:20;;;;;;;11.47;7.67;;;;;;;;;;4985703;28;20620;-88
2021/01/14 15:16:24;;;;;;;16.80;8.60;;;;;;;;;;5008801;28;20609;-88
2021/01/14 15:19:28;;;;;;;38.30;16.40;;;;;;;;;;4975840;28;20545;-88
2021/01/14 15:22:33;;;;;;;25.07;10.50;;;;;;;;;;4986286;28;20645;-88
2021/01/14 15:25:37;;;;;;;6.50;3.00;;;;;;;;;;4987204;28;20557;-88
2021/01/14 15:28:41;;;;;;;5.03;3.30;;;;;;;;;;4998043;28;20597;-88
2021/01/14 15:31:46;;;;;;;15.33;7.00;;;;;;;;;;5008653;28;20624;-88
2021/01/14 15:34:50;;;;;;;7.93;4.63;;;;;;;;;;4985663;28;20589;-88
2021/01/14 15:37:54;;;;;;;7.47;4.77;;;;;;;;;;4996940;28;20601;-88
2021/01/14 15:40:59;;;;;;;8.73;4.47;;;;;;;;;;4985364;28;20537;-89
2021/01/14 15:44:04;;;;;;;11.47;4.30;;;;;;;;;;4997006;28;20542;-89
2021/01/14 15:47:08;;;;;;;8.10;4.17;;;;;;;;;;4985539;28;20541;-87
2021/01/14 15:50:13;;;;;;;8.57;3.00;;;;;;;;;;4996938;28;20537;-89
2021/01/14 15:53:17;;;;;;;5.10;2.80;;;;;;;;;;4985185;28;20969;-88
2021/01/14 15:56:35;;;;;;;3.97;2.13;;;;;;;;;;4985380;28;21194;-88
2021/01/14 15:59:40;;;;;;;5.10;2.53;;;;;;;;;;4996739;28;20546;-88
2021/01/14 16:02:45;;;;;;;3.83;2.10;;;;;;;;;;4973899;28;20625;-89
2021/01/14 16:05:49;;;;;;;6.03;2.20;;;;;;;;;;4996396;28;20542;-89
2021/01/14 16:08:53;;;;;;;4.83;2.10;;;;;;;;;;4996402;28;20881;-88
2021/01/14 16:11:59;;;;;;;8.90;2.50;;;;;;;;;;4995768;28;20633;-88
2021/01/14 16:15:03;;;;;;;7.03;2.10;;;;;;;;;;4995900;28;21068;-88
2021/01/14 16:18:07;;;;;;;6.07;2.20;;;;;;;;;;4995946;28;20601;-89
2021/01/14 16:21:11;;;;;;;3.90;2.67;;;;;;;;;;4973029;28;20592;-88
2021/01/14 16:24:17;;;;;;;4.73;2.33;;;;;;;;;;4984318;28;20542;-88
2021/01/14 16:27:22;;;;;;;5.13;2.50;;;;;;;;;;4984073;28;21068;-88
2021/01/14 16:30:25;;;;;;;6.40;3.60;;;;;;;;;;4984316;28;20558;-89
2021/01/14 16:33:31;;;;;;;3.73;2.40;;;;;;;;;;4995000;28;20621;-90
2021/01/14 16:36:35;;;;;;;5.37;2.40;;;;;;;;;;4995342;28;20594;-88
2021/01/14 16:39:39;;;;;;;3.87;2.57;;;;;;;;;;4972687;28;20561;-88
2021/01/14 16:42:43;;;;;;;6.07;3.03;;;;;;;;;;4972627;28;20620;-88
2021/01/14 16:45:47;;;;;;;5.73;2.90;;;;;;;;;;4994903;28;21096;-87
2021/01/14 16:48:55;;;;;;;8.93;2.83;;;;;;;;;;4983831;28;20866;-87
2021/01/14 16:52:01;;;;;;;4.87;2.40;;;;;;;;;;4994388;28;20633;-87
2021/01/14 16:55:06;;;;;;;7.17;2.47;;;;;;;;;;4972279;28;20562;-87
2021/01/14 16:58:10;;;;;;;6.37;2.53;;;;;;;;;;5006081;28;20593;-87
2021/01/14 17:01:21;;;;;;;3.90;2.50;;;;;;;;;;4994247;28;20562;-88
2021/01/14 17:04:30;;;;;;;3.37;2.37;;;;;;;;;;4994852;28;20546;-89
2021/01/14 17:07:34;;;;;;;5.77;2.40;;;;;;;;;;4983482;28;20538;-87
2021/01/14 17:10:38;;;;;;;5.73;2.80;;;;;;;;;;4983169;28;20562;-87
2021/01/14 17:13:43;;;;;;;55.33;19.83;;;;;;;;;;4994505;28;20545;-87
2021/01/14 17:16:49;;;;;;;17.73;7.63;;;;;;;;;;4982962;28;20616;-87
2021/01/14 17:19:53;;;;;;;6.30;2.97;;;;;;;;;;4994102;28;20628;-87
2021/01/14 17:22:58;;;;;;;4.90;2.60;;;;;;;;;;4974780;28;20649;-87
2021/01/14 17:26:02;;;;;;;8.03;4.17;;;;;;;;;;4974772;28;20589;-87
2021/01/14 17:29:07;;;;;;;8.27;3.27;;;;;;;;;;4971978;28;20609;-87
2021/01/14 17:32:15;;;;;;;6.80;2.80;;;;;;;;;;4994165;28;20985;-88
2021/01/14 17:40:26;;;;;;;4.93;2.47;;;;;;;;;;4994026;28;20589;-88
2021/01/14 17:44:20;;;;;;;6.73;2.33;;;;;;;;;;4995043;28;20534;-89
2021/01/14 17:47:27;;;;;;;5.97;2.50;;;;;;;;;;4971737;28;20535;-87
2021/01/14 17:50:32;;;;;;;4.23;2.50;;;;;;;;;;4983059;28;20553;-87
2021/01/14 17:53:36;;;;;;;6.10;3.03;;;;;;;;;;4993503;28;20593;-88
2021/01/14 17:56:42;;;;;;;7.73;3.50;;;;;;;;;;4982967;28;20553;-90
2021/01/14 17:59:47;;;;;;;7.70;3.77;;;;;;;;;;4971528;28;21084;-89
2021/01/14 18:02:57;;;;;;;7.30;4.60;;;;;;;;;;4993723;28;20687;-90
2021/01/14 18:06:31;;;;;;;10.10;5.77;;;;;;;;;;4987704;28;20554;-88
2021/01/14 18:09:36;;;;;;;5.63;2.97;;;;;;;;;;4994341;28;21076;-88
2021/01/14 18:12:40;;;;;;;7.67;3.37;;;;;;;;;;4993577;28;20625;-89
2021/01/14 18:15:46;;;;;;;6.97;2.77;;;;;;;;;;4982392;28;20605;-89
2021/01/14 18:18:50;;;;;;;7.30;3.10;;;;;;;;;;4982732;28;20594;-89
2021/01/14 18:21:56;;;;;;;9.47;3.03;;;;;;;;;;4993224;28;20637;-89
2021/01/14 18:25:00;;;;;;;6.50;3.63;;;;;;;;;;4971116;28;20534;-90
2021/01/14 18:28:05;;;;;;;6.17;3.17;;;;;;;;;;4971574;28;20542;-89
2021/01/14 18:31:09;;;;;;;7.20;3.07;;;;;;;;;;4993409;28;20542;-88
2021/01/14 18:34:14;;;;;;;6.83;4.07;;;;;;;;;;4993328;28;20605;-89
2021/01/14 18:37:18;;;;;;;8.80;5.40;;;;;;;;;;4971005;28;20645;-89
2021/01/14 18:40:22;;;;;;;15.63;7.03;;;;;;;;;;4971252;28;20882;-89
2021/01/14 18:43:26;;;;;;;18.30;7.60;;;;;;;;;;4993092;28;20612;-89
2021/01/14 18:46:30;;;;;;;8.67;5.73;;;;;;;;;;4972800;28;20554;-89